createdAt,value
2018-02-18T00:00:05.286Z,27.10
2018-02-18T00:02:34.246Z,31.77
2018-02-18T00:05:02.459Z,32.00
2018-02-18T00:07:31.388Z,34.43
2018-02-18T00:10:00.713Z,32.20
2018-02-18T00:12:28.851Z,35.87
2018-02-18T00:14:59.885Z,32.20
2018-02-18T00:17:28.113Z,35.13
2018-02-18T00:19:56.358Z,32.33
2018-02-18T00:22:24.503Z,30.60
2018-02-18T00:24:52.685Z,36.83
2018-02-18T00:27:20.821Z,31.30
2018-02-18T00:29:48.959Z,35.03
2018-02-18T00:32:17.085Z,33.83
2018-02-18T00:34:45.987Z,35.17
2018-02-18T00:37:14.159Z,34.47
2018-02-18T00:39:43.169Z,35.73
2018-02-18T00:42:11.324Z,40.13
2018-02-18T00:44:40.225Z,41.43
2018-02-18T00:47:09.112Z,38.87
2018-02-18T00:49:38.009Z,35.20
2018-02-18T00:52:06.894Z,36.73
2018-02-18T00:54:35.813Z,37.33
2018-02-18T00:57:03.977Z,39.17
2018-02-18T00:59:32.095Z,38.73
2018-02-18T01:02:00.316Z,39.03
2018-02-18T01:04:29.196Z,33.40
2018-02-18T01:06:58.088Z,36.30
2018-02-18T01:09:27.015Z,41.40
2018-02-18T01:11:55.160Z,43.50
2018-02-18T01:14:24.058Z,37.27
2018-02-18T01:16:52.192Z,35.57
2018-02-18T01:19:20.328Z,37.07
2018-02-18T01:21:48.517Z,53.07
2018-02-18T01:24:16.741Z,38.07
2018-02-18T01:26:44.981Z,38.03
2018-02-18T01:29:13.169Z,35.43
2018-02-18T01:31:41.462Z,38.03
2018-02-18T01:34:11.543Z,39.43
2018-02-18T01:36:39.724Z,40.07
2018-02-18T01:39:07.845Z,39.50
2018-02-18T01:41:35.980Z,36.93
2018-02-18T01:44:04.765Z,49.33
2018-02-18T01:46:32.923Z,40.23
2018-02-18T01:49:01.074Z,45.57
2018-02-18T01:51:29.271Z,39.43
2018-02-18T01:53:57.447Z,38.00
2018-02-18T01:56:25.623Z,37.30
2018-02-18T01:58:54.613Z,41.60
2018-02-18T02:01:23.607Z,42.20
2018-02-18T02:03:51.773Z,48.67
2018-02-18T02:06:19.891Z,40.77
2018-02-18T02:08:48.141Z,45.27
2018-02-18T02:11:16.304Z,42.57
2018-02-18T02:13:44.541Z,40.83
2018-02-18T02:16:12.699Z,39.23
2018-02-18T02:18:41.605Z,47.07
2018-02-18T02:21:09.754Z,42.30
2018-02-18T02:23:37.862Z,42.07
2018-02-18T02:26:05.996Z,41.87
2018-02-18T02:28:34.123Z,49.30
2018-02-18T02:31:03.432Z,39.03
2018-02-18T02:33:31.598Z,37.37
2018-02-18T02:35:59.730Z,46.00
2018-02-18T02:38:27.853Z,42.10
2018-02-18T02:40:55.995Z,41.63
2018-02-18T02:43:24.149Z,38.90
2018-02-18T02:45:53.096Z,40.67
2018-02-18T02:48:21.230Z,46.00
2018-02-18T02:50:50.103Z,41.50
2018-02-18T02:53:18.255Z,41.43
2018-02-18T02:55:46.432Z,55.07
2018-02-18T02:58:14.546Z,48.43
2018-02-18T03:00:43.507Z,51.23
2018-02-18T03:03:11.619Z,50.33
2018-02-18T03:05:39.815Z,46.67
2018-02-18T03:08:07.939Z,44.30
2018-02-18T03:10:36.061Z,47.83
2018-02-18T03:13:04.237Z,48.67
2018-02-18T03:15:33.208Z,45.43
2018-02-18T03:18:01.355Z,45.47
2018-02-18T03:20:30.251Z,47.97
2018-02-18T03:22:59.157Z,46.63
2018-02-18T03:25:27.315Z,44.30
2018-02-18T03:27:55.481Z,48.30
2018-02-18T03:30:23.674Z,47.47
2018-02-18T03:32:52.552Z,48.07
2018-02-18T03:35:20.715Z,49.30
2018-02-18T03:37:48.841Z,39.53
2018-02-18T03:40:17.030Z,44.40
2018-02-18T03:42:45.165Z,53.20
2018-02-18T03:45:14.092Z,43.47
2018-02-18T03:47:42.201Z,48.73
2018-02-18T03:50:10.344Z,47.03
2018-02-18T03:52:39.231Z,51.03
2018-02-18T03:55:07.390Z,55.53
2018-02-18T03:57:35.517Z,51.50
2018-02-18T04:00:03.642Z,44.67
2018-02-18T04:02:31.792Z,47.07
2018-02-18T04:04:59.931Z,43.83
2018-02-18T04:07:28.058Z,45.33
2018-02-18T04:09:56.182Z,49.37
2018-02-18T04:12:24.360Z,43.60
2018-02-18T04:14:52.492Z,42.77
2018-02-18T04:17:20.682Z,44.07
2018-02-18T04:19:48.852Z,53.53
2018-02-18T04:22:17.032Z,50.07
2018-02-18T04:24:45.151Z,46.57
2018-02-18T04:27:14.044Z,60.13
2018-02-18T04:29:42.985Z,59.17
2018-02-18T04:32:11.343Z,52.60
2018-02-18T04:34:39.474Z,49.47
2018-02-18T04:37:07.613Z,42.17
2018-02-18T04:39:35.733Z,56.23
2018-02-18T04:42:04.627Z,58.43
2018-02-18T04:44:33.594Z,49.40
2018-02-18T04:47:01.741Z,48.77
2018-02-18T04:49:29.895Z,63.47
2018-02-18T04:51:58.037Z,73.90
2018-02-18T04:54:27.430Z,65.00
2018-02-18T04:56:56.317Z,49.77
2018-02-18T04:59:24.457Z,54.70
2018-02-18T05:01:52.587Z,63.43
2018-02-18T05:04:21.497Z,64.10
2018-02-18T05:06:49.680Z,71.60
2018-02-18T05:09:17.828Z,46.10
2018-02-18T05:11:46.128Z,47.70
2018-02-18T05:14:14.357Z,54.90
2018-02-18T05:16:42.640Z,55.57
2018-02-18T05:19:11.157Z,63.53
2018-02-18T05:21:39.302Z,65.73
2018-02-18T05:24:08.192Z,78.50
2018-02-18T05:26:37.750Z,65.93
2018-02-18T05:29:05.878Z,70.93
2018-02-18T05:31:34.848Z,70.40
2018-02-18T05:34:03.011Z,74.30
2018-02-18T05:36:31.126Z,68.70
2018-02-18T05:39:00.027Z,73.30
2018-02-18T05:41:28.146Z,70.33
2018-02-18T05:43:56.270Z,66.20
2018-02-18T05:46:24.419Z,67.10
2018-02-18T05:48:53.336Z,65.17
2018-02-18T05:51:21.488Z,64.57
2018-02-18T05:53:50.379Z,54.63
2018-02-18T05:56:19.454Z,58.43
2018-02-18T05:58:47.689Z,49.40
2018-02-18T06:01:15.928Z,67.60
2018-02-18T06:03:44.840Z,65.30
2018-02-18T06:06:13.025Z,62.67
2018-02-18T06:08:41.153Z,64.37
2018-02-18T06:11:09.275Z,56.40
2018-02-18T06:13:37.419Z,57.83
2018-02-18T06:16:06.329Z,58.23
2018-02-18T06:18:34.623Z,56.47
2018-02-18T06:21:02.749Z,79.00
2018-02-18T06:23:31.568Z,70.83
2018-02-18T06:25:59.708Z,64.33
2018-02-18T06:28:27.829Z,67.43
2018-02-18T06:30:55.960Z,68.10
2018-02-18T06:33:24.072Z,65.10
2018-02-18T06:35:52.222Z,72.30
2018-02-18T06:38:21.102Z,72.13
2018-02-18T06:40:50.016Z,67.80
2018-02-18T06:43:18.136Z,75.10
2018-02-18T06:45:46.567Z,70.73
2018-02-18T06:48:14.744Z,69.70
2018-02-18T06:50:43.374Z,66.07
2018-02-18T06:53:15.382Z,59.57
2018-02-18T06:55:44.268Z,57.40
2018-02-18T06:58:14.446Z,69.03
2018-02-18T07:00:42.596Z,70.53
2018-02-18T07:03:10.891Z,72.07
2018-02-18T07:05:39.184Z,60.40
2018-02-18T07:08:07.364Z,63.83
2018-02-18T07:10:35.704Z,59.53
2018-02-18T07:13:04.604Z,68.87
2018-02-18T07:15:32.847Z,58.03
2018-02-18T07:18:01.741Z,63.73
2018-02-18T07:20:29.894Z,58.20
2018-02-18T07:22:58.031Z,52.87
2018-02-18T07:25:26.275Z,60.67
2018-02-18T07:27:54.507Z,58.17
2018-02-18T07:30:22.651Z,57.77
2018-02-18T07:32:50.914Z,52.90
2018-02-18T07:35:19.073Z,50.50
2018-02-18T07:37:47.235Z,61.07
2018-02-18T07:40:16.129Z,51.87
2018-02-18T07:42:44.275Z,46.87
2018-02-18T07:45:12.442Z,53.00
2018-02-18T07:47:40.599Z,52.93
2018-02-18T07:50:08.718Z,48.70
2018-02-18T07:52:37.915Z,51.03
2018-02-18T07:55:06.917Z,54.10
2018-02-18T07:57:35.825Z,53.33
2018-02-18T08:00:04.236Z,43.00
2018-02-18T08:02:32.850Z,47.20
2018-02-18T08:05:00.982Z,48.70
2018-02-18T08:07:29.274Z,49.27
2018-02-18T08:10:01.407Z,45.50
2018-02-18T08:12:29.618Z,41.37
2018-02-18T08:14:57.824Z,40.37
2018-02-18T08:17:26.937Z,40.20
2018-02-18T08:19:56.527Z,38.70
2018-02-18T08:22:25.430Z,36.90
2018-02-18T08:24:54.372Z,39.97
2018-02-18T08:27:22.562Z,42.93
2018-02-18T08:29:50.678Z,49.63
2018-02-18T08:32:19.597Z,45.50
2018-02-18T08:34:47.737Z,47.27
2018-02-18T08:37:16.627Z,44.37
2018-02-18T08:39:45.530Z,50.90
2018-02-18T08:42:14.449Z,49.07
2018-02-18T08:44:42.585Z,55.13
2018-02-18T08:47:11.478Z,49.20
2018-02-18T08:49:40.426Z,48.60
2018-02-18T08:52:08.533Z,53.63
2018-02-18T08:54:37.442Z,57.03
2018-02-18T08:57:06.532Z,53.13
2018-02-18T08:59:35.426Z,57.90
2018-02-18T09:02:05.226Z,62.70
2018-02-18T09:04:34.255Z,57.57
2018-02-18T09:07:02.505Z,55.80
2018-02-18T09:09:31.472Z,57.80
2018-02-18T09:11:59.613Z,46.60
2018-02-18T09:14:27.735Z,51.27
2018-02-18T09:16:56.624Z,56.13
2018-02-18T09:19:26.006Z,59.77
2018-02-18T09:21:54.165Z,63.07
2018-02-18T09:24:22.459Z,68.10
2018-02-18T09:26:50.664Z,67.40
2018-02-18T09:29:19.541Z,56.20
2018-02-18T09:31:47.688Z,52.23
2018-02-18T09:34:15.801Z,54.00
2018-02-18T09:36:44.691Z,64.33
2018-02-18T09:39:13.587Z,58.77
2018-02-18T09:41:42.483Z,60.07
2018-02-18T09:44:11.401Z,59.97
2018-02-18T09:46:39.531Z,67.67
2018-02-18T09:49:08.572Z,64.67
2018-02-18T09:51:36.719Z,62.33
2018-02-18T09:54:05.630Z,77.60
2018-02-18T09:56:34.549Z,63.07
2018-02-18T09:59:02.839Z,70.67
2018-02-18T10:01:31.077Z,66.03
2018-02-18T10:03:59.267Z,75.03
2018-02-18T10:06:31.448Z,73.40
2018-02-18T10:08:59.693Z,79.60
2018-02-18T10:11:27.925Z,77.23
2018-02-18T10:13:56.822Z,75.00
2018-02-18T10:16:25.751Z,88.70
2018-02-18T10:18:53.888Z,71.60
2018-02-18T10:21:22.878Z,67.40
2018-02-18T10:23:51.784Z,75.53
2018-02-18T10:26:20.663Z,92.77
2018-02-18T10:28:49.608Z,87.03
2018-02-18T10:31:17.774Z,78.97
2018-02-18T10:33:45.943Z,84.87
2018-02-18T10:36:15.302Z,69.13
2018-02-18T10:38:43.498Z,75.53
2018-02-18T10:41:11.764Z,71.07
2018-02-18T10:43:40.696Z,76.43
2018-02-18T10:46:08.860Z,71.73
2018-02-18T10:48:37.008Z,64.23
2018-02-18T10:51:05.922Z,75.07
2018-02-18T10:53:35.087Z,73.50
2018-02-18T10:56:03.300Z,63.50
2018-02-18T10:58:31.530Z,72.30
2018-02-18T11:01:00.423Z,73.00
2018-02-18T11:03:29.369Z,62.57
2018-02-18T11:05:57.644Z,62.00
2018-02-18T11:08:25.772Z,63.33
2018-02-18T11:10:54.669Z,64.27
2018-02-18T11:13:27.085Z,62.97
2018-02-18T11:15:55.200Z,56.97
2018-02-18T11:18:23.342Z,51.40
2018-02-18T11:20:51.457Z,51.10
2018-02-18T11:23:21.007Z,48.43
2018-02-18T11:25:51.690Z,47.53
2018-02-18T11:28:19.835Z,33.43
2018-02-18T11:30:47.979Z,29.60
2018-02-18T11:33:16.900Z,28.40
2018-02-18T11:35:45.172Z,26.73
2018-02-18T11:38:13.295Z,29.70
2018-02-18T11:40:41.456Z,21.30
2018-02-18T11:43:09.603Z,25.70
2018-02-18T11:45:37.743Z,27.73
2018-02-18T11:48:06.676Z,26.97
2018-02-18T11:50:34.797Z,29.13
2018-02-18T11:53:03.749Z,28.83
2018-02-18T11:55:31.870Z,30.17
2018-02-18T11:58:00.795Z,30.90
2018-02-18T12:00:28.932Z,28.43
2018-02-18T12:02:57.826Z,26.17
2018-02-18T12:05:26.272Z,27.97
2018-02-18T12:07:54.438Z,27.90
2018-02-18T12:10:22.637Z,31.50
2018-02-18T12:12:51.446Z,29.20
2018-02-18T12:15:20.550Z,29.07
2018-02-18T12:17:49.470Z,26.67
2018-02-18T12:20:17.578Z,29.83
2018-02-18T12:22:45.896Z,22.70
2018-02-18T12:25:14.020Z,29.17
2018-02-18T12:27:42.268Z,29.40
2018-02-18T12:30:10.443Z,25.83
2018-02-18T12:32:38.632Z,25.97
2018-02-18T12:35:07.025Z,27.80
2018-02-18T12:37:35.194Z,35.80
2018-02-18T12:40:03.443Z,28.53
2018-02-18T12:42:31.722Z,29.70
2018-02-18T12:44:59.860Z,34.63
2018-02-18T12:47:28.934Z,28.00
2018-02-18T12:49:57.294Z,30.23
2018-02-18T12:52:25.460Z,34.50
2018-02-18T12:54:53.739Z,34.13
2018-02-18T12:57:21.921Z,33.10
2018-02-18T12:59:50.885Z,40.30
2018-02-18T13:02:19.080Z,35.07
2018-02-18T13:04:47.279Z,35.43
2018-02-18T13:07:16.193Z,37.50
2018-02-18T13:09:45.187Z,32.97
2018-02-18T13:12:14.272Z,34.13
2018-02-18T13:14:42.411Z,28.67
2018-02-18T13:17:10.583Z,21.90
2018-02-18T13:19:38.905Z,24.17
2018-02-18T13:22:07.849Z,23.20
2018-02-18T13:24:36.134Z,23.03
2018-02-18T13:27:04.373Z,22.03
2018-02-18T13:29:32.488Z,21.80
2018-02-18T13:32:00.718Z,22.83
2018-02-18T13:34:28.843Z,22.63
2018-02-18T13:36:56.999Z,28.67
2018-02-18T13:39:25.374Z,39.43
2018-02-18T13:41:53.561Z,31.60
2018-02-18T13:44:21.773Z,36.37
2018-02-18T13:46:50.834Z,38.97
2018-02-18T13:49:24.811Z,37.07
2018-02-18T13:51:53.050Z,33.40
2018-02-18T13:54:21.994Z,26.97
2018-02-18T13:56:50.840Z,28.97
2018-02-18T13:59:19.748Z,24.43
2018-02-18T14:01:48.644Z,25.30
2018-02-18T14:04:17.394Z,23.83
2018-02-18T14:06:45.549Z,19.93
2018-02-18T14:09:13.682Z,21.47
2018-02-18T14:11:41.854Z,19.40
2018-02-18T14:14:10.015Z,17.47
2018-02-18T14:16:38.945Z,17.73
2018-02-18T14:19:07.071Z,17.63
2018-02-18T14:21:35.997Z,13.13
2018-02-18T14:24:04.907Z,13.23
2018-02-18T14:26:33.073Z,18.00
2018-02-18T14:29:11.747Z,17.53
2018-02-18T14:31:40.699Z,16.30
2018-02-18T14:34:08.861Z,17.40
2018-02-18T14:36:37.003Z,17.57
2018-02-18T14:39:05.885Z,19.83
2018-02-18T14:41:52.517Z,19.13
2018-02-18T14:44:38.551Z,17.93
2018-02-18T14:47:24.699Z,15.80
2018-02-18T14:50:10.815Z,18.37
2018-02-18T14:52:56.786Z,18.53
2018-02-18T14:55:42.694Z,19.13
2018-02-18T14:58:10.835Z,17.50
2018-02-18T15:00:39.728Z,16.97
2018-02-18T15:03:08.620Z,19.77
2018-02-18T15:05:37.519Z,20.03
2018-02-18T15:08:06.400Z,16.97
2018-02-18T15:10:35.328Z,19.03
2018-02-18T15:13:04.443Z,18.50
2018-02-18T15:15:32.875Z,19.10
2018-02-18T15:18:02.534Z,19.40
2018-02-18T15:20:31.478Z,16.77
2018-02-18T15:23:00.398Z,17.57
2018-02-18T15:25:28.518Z,19.33
2018-02-18T15:27:56.662Z,19.43
2018-02-18T15:30:26.148Z,16.10
2018-02-18T15:32:54.288Z,18.10
2018-02-18T15:35:23.188Z,18.57
2018-02-18T15:37:52.395Z,19.80
2018-02-18T15:40:21.358Z,17.03
2018-02-18T15:42:50.058Z,16.60
2018-02-18T15:45:18.237Z,18.40
2018-02-18T15:47:46.362Z,13.07
2018-02-18T15:50:14.527Z,15.90
2018-02-18T15:52:42.765Z,16.53
2018-02-18T15:55:10.938Z,18.70
2018-02-18T15:57:39.902Z,16.20
2018-02-18T16:00:08.105Z,20.60
2018-02-18T16:02:36.558Z,19.77
2018-02-18T16:05:04.889Z,20.87
2018-02-18T16:07:33.106Z,20.83
2018-02-18T16:10:01.310Z,19.10
2018-02-18T16:12:30.296Z,16.83
2018-02-18T16:14:59.373Z,19.03
2018-02-18T16:17:27.755Z,21.13
2018-02-18T16:19:55.884Z,19.07
2018-02-18T16:22:24.048Z,19.57
2018-02-18T16:25:03.060Z,20.23
2018-02-18T16:27:31.194Z,20.87
2018-02-18T16:29:59.307Z,23.03
2018-02-18T16:32:28.198Z,17.87
2018-02-18T16:34:57.089Z,18.67
2018-02-18T16:37:25.968Z,21.77
2018-02-18T16:39:54.866Z,24.03
2018-02-18T16:42:23.818Z,21.67
2018-02-18T16:44:51.961Z,20.70
2018-02-18T16:47:20.087Z,21.77
2018-02-18T16:49:48.224Z,22.43
2018-02-18T16:52:16.342Z,26.27
2018-02-18T16:54:45.237Z,25.00
2018-02-18T16:57:14.215Z,23.53
2018-02-18T16:59:42.983Z,27.17
2018-02-18T17:02:11.135Z,26.33
2018-02-18T17:04:39.305Z,25.73
2018-02-18T17:07:07.519Z,27.57
2018-02-18T17:09:35.665Z,24.17
2018-02-18T17:12:03.923Z,27.13
2018-02-18T17:14:32.050Z,24.37
2018-02-18T17:17:00.231Z,25.73
2018-02-18T17:19:28.846Z,25.50
2018-02-18T17:21:56.971Z,24.70
2018-02-18T17:24:25.221Z,23.50
2018-02-18T17:26:53.347Z,25.47
2018-02-18T17:29:22.249Z,26.20
2018-02-18T17:31:51.194Z,27.40
2018-02-18T17:34:19.350Z,27.70
2018-02-18T17:36:47.506Z,29.97
2018-02-18T17:39:15.734Z,29.97
2018-02-18T17:41:44.045Z,28.60
2018-02-18T17:44:13.000Z,31.07
2018-02-18T17:46:41.199Z,30.60
2018-02-18T17:49:10.088Z,33.40
2018-02-18T17:51:39.037Z,32.20
2018-02-18T17:54:07.188Z,32.63
2018-02-18T17:56:35.371Z,37.30
2018-02-18T17:59:03.627Z,33.13
2018-02-18T18:01:31.842Z,39.60
2018-02-18T18:04:00.119Z,37.50
2018-02-18T18:06:28.395Z,42.03
2018-02-18T18:08:56.607Z,36.67
2018-02-18T18:11:24.779Z,40.67
2018-02-18T18:13:53.027Z,35.70
2018-02-18T18:16:21.168Z,35.27
2018-02-18T18:18:49.299Z,36.03
2018-02-18T18:21:17.423Z,44.23
2018-02-18T18:23:45.749Z,42.27
2018-02-18T18:26:14.598Z,39.37
2018-02-18T18:28:43.608Z,35.90
2018-02-18T18:31:11.889Z,37.97
2018-02-18T18:33:40.542Z,33.87
2018-02-18T18:36:10.061Z,34.80
2018-02-18T18:38:38.711Z,32.83
2018-02-18T18:41:07.846Z,34.70
2018-02-18T18:43:36.053Z,32.03
2018-02-18T18:46:04.200Z,37.90
2018-02-18T18:48:32.336Z,37.10
2018-02-18T18:51:00.599Z,36.67
2018-02-18T18:53:29.665Z,33.93
2018-02-18T18:55:58.008Z,40.03
2018-02-18T18:58:26.170Z,37.90
2018-02-18T19:00:54.708Z,30.67
2018-02-18T19:03:22.819Z,30.20
2018-02-18T19:05:51.416Z,33.97
2018-02-18T19:08:20.676Z,35.00
2018-02-18T19:10:48.944Z,37.40
2018-02-18T19:13:17.130Z,36.30
2018-02-18T19:15:45.265Z,40.50
2018-02-18T19:18:14.197Z,36.93
2018-02-18T19:20:42.338Z,33.07
2018-02-18T19:23:10.812Z,40.67
2018-02-18T19:25:39.007Z,28.97
2018-02-18T19:28:07.171Z,32.93
2018-02-18T19:30:35.299Z,31.93
2018-02-18T19:33:03.437Z,27.23
2018-02-18T19:35:31.824Z,30.23
2018-02-18T19:38:00.064Z,31.60
2018-02-18T19:40:29.056Z,33.70
2018-02-18T19:42:58.112Z,32.80
2018-02-18T19:45:26.412Z,34.10
2018-02-18T19:47:55.499Z,34.07
2018-02-18T19:50:23.643Z,41.77
2018-02-18T19:52:53.212Z,38.47
2018-02-18T19:55:21.617Z,47.27
2018-02-18T19:57:49.749Z,43.10
2018-02-18T20:00:17.889Z,42.87
2018-02-18T20:02:46.823Z,49.10
2018-02-18T20:05:15.782Z,42.57
2018-02-18T20:07:43.984Z,42.47
2018-02-18T20:10:12.148Z,43.27
2018-02-18T20:12:40.286Z,45.20
2018-02-18T20:15:09.202Z,44.27
2018-02-18T20:17:37.319Z,44.40
2018-02-18T20:20:05.528Z,39.83
2018-02-18T20:22:34.450Z,46.60
2018-02-18T20:25:02.662Z,49.50
2018-02-18T20:27:30.808Z,48.77
2018-02-18T20:29:58.956Z,48.43
2018-02-18T20:32:27.118Z,48.17
2018-02-18T20:34:56.980Z,53.20
2018-02-18T20:37:25.944Z,41.80
2018-02-18T20:39:54.226Z,45.20
2018-02-18T20:42:22.363Z,39.57
2018-02-18T20:44:50.500Z,40.30
2018-02-18T20:47:18.639Z,40.47
2018-02-18T20:49:46.798Z,41.90
2018-02-18T20:52:16.095Z,44.53
2018-02-18T20:54:45.066Z,45.53
2018-02-18T20:57:13.206Z,53.27
2018-02-18T20:59:41.375Z,42.53
2018-02-18T21:02:09.524Z,47.93
2018-02-18T21:04:38.479Z,40.93
2018-02-18T21:07:06.647Z,55.30
2018-02-18T21:09:34.794Z,56.73
2018-02-18T21:12:02.940Z,39.77
2018-02-18T21:14:31.895Z,38.33
2018-02-18T21:17:00.093Z,47.17
2018-02-18T21:19:29.002Z,57.03
2018-02-18T21:21:57.927Z,50.80
2018-02-18T21:24:26.123Z,55.47
2018-02-18T21:26:54.373Z,50.73
2018-02-18T21:29:22.519Z,32.83
2018-02-18T21:31:50.724Z,35.20
2018-02-18T21:34:19.661Z,41.23
2018-02-18T21:36:48.586Z,42.50
2018-02-18T21:39:16.747Z,38.00
2018-02-18T21:41:46.116Z,46.83
2018-02-18T21:44:14.368Z,53.63
2018-02-18T21:46:43.254Z,61.37
2018-02-18T21:49:11.389Z,61.77
2018-02-18T21:51:40.301Z,44.97
2018-02-18T21:54:08.460Z,51.23
2018-02-18T21:56:36.626Z,48.87
2018-02-18T21:59:05.550Z,42.97
2018-02-18T22:01:33.692Z,50.83
2018-02-18T22:04:02.632Z,49.87
2018-02-18T22:06:30.813Z,58.57
2018-02-18T22:08:58.978Z,84.27
2018-02-18T22:11:27.133Z,69.73
2018-02-18T22:13:55.276Z,73.03
2018-02-18T22:16:24.209Z,60.30
2018-02-18T22:18:52.342Z,73.97
2018-02-18T22:21:21.332Z,77.80
2018-02-18T22:23:50.294Z,73.60
2018-02-18T22:26:18.474Z,66.70
2018-02-18T22:28:46.669Z,56.13
2018-02-18T22:31:15.624Z,58.63
2018-02-18T22:33:43.732Z,58.77
2018-02-18T22:36:11.987Z,84.80
2018-02-18T22:38:40.548Z,86.87
2018-02-18T22:41:08.687Z,83.60
2018-02-18T22:43:36.817Z,86.70
2018-02-18T22:46:04.977Z,86.80
2018-02-18T22:48:33.118Z,73.90
2018-02-18T22:51:01.266Z,88.50
2018-02-18T22:53:30.175Z,70.60
2018-02-18T22:55:58.305Z,55.03
2018-02-18T22:58:26.445Z,61.73
2018-02-18T23:00:54.588Z,50.67
2018-02-18T23:03:23.605Z,51.77
2018-02-18T23:05:52.598Z,49.20
2018-02-18T23:08:20.851Z,52.40
2018-02-18T23:10:49.743Z,33.93
2018-02-18T23:13:18.630Z,37.27
2018-02-18T23:15:47.584Z,49.70
2018-02-18T23:18:15.773Z,51.63
2018-02-18T23:21:01.696Z,42.77
2018-02-18T23:23:30.596Z,30.03
2018-02-18T23:25:58.757Z,36.47
2018-02-18T23:28:30.392Z,40.13
2018-02-18T23:30:59.074Z,37.40
2018-02-18T23:33:28.005Z,41.43
2018-02-18T23:35:56.118Z,34.00
2018-02-18T23:38:24.266Z,30.13
2018-02-18T23:40:52.472Z,28.33
2018-02-18T23:43:20.643Z,33.73
2018-02-18T23:45:48.760Z,21.27
2018-02-18T23:48:17.674Z,29.73
2018-02-18T23:50:45.843Z,34.27
2018-02-18T23:53:13.972Z,50.13
2018-02-18T23:55:42.130Z,43.43
2018-02-18T23:58:10.242Z,43.53
